Time;durP1;ratioP1;P1;durP2;ratioP2;P2;SDS_P1;SDS_P2;PMS_P1;PMS_P2;Temp;Humidity;BMP_temperature;BMP_pressure;BME280_temperature;BME280_humidity;BME280_pressure;Samples;Min_cycle;Max_cycle;Signal;HPM_P1;HPM_P2
2023/02/21 02:21:27;;;;;;;3.65;1.85;;;2.80;99.90;;;;;;20986776;28;20044;-57
2023/02/21 02:32:28;;;;;;;3.60;1.63;;;2.80;99.90;;;;;;20973565;28;20032;-57
2023/02/21 02:42:29;;;;;;;4.28;2.00;;;3.00;99.90;;;;;;20756653;28;20046;-57
2023/02/21 02:52:31;;;;;;;3.70;1.67;;;3.10;99.90;;;;;;20714080;28;20046;-57
2023/02/21 03:03:02;;;;;;;4.32;1.27;;;2.90;99.90;;;;;;20724780;28;20089;-66
2023/02/21 03:13:26;;;;;;;2.20;1.10;;;2.80;99.90;;;;;;20942227;28;20094;-60
2023/02/21 03:23:31;;;;;;;3.15;1.25;;;2.90;99.90;;;;;;20970833;28;20286;-64
2023/02/21 03:33:32;;;;;;;2.10;1.17;;;3.00;99.90;;;;;;20971710;28;20307;-57
2023/02/21 03:43:34;;;;;;;1.70;0.77;;;3.00;99.90;;;;;;20981623;28;20033;-65
2023/02/21 03:53:38;;;;;;;3.45;1.48;;;3.10;99.90;;;;;;20975020;28;20041;-58
2023/02/21 04:03:41;;;;;;;1.80;0.80;;;3.10;99.90;;;;;;20978970;28;20178;-57
2023/02/21 04:13:43;;;;;;;1.85;0.82;;;3.00;99.90;;;;;;20991498;28;20044;-67
2023/02/21 04:23:45;;;;;;;3.53;0.90;;;2.90;99.90;;;;;;20990634;28;20029;-57
2023/02/21 04:33:47;;;;;;;2.53;1.10;;;3.40;99.90;;;;;;20997486;28;20032;-58
2023/02/21 04:43:55;;;;;;;1.63;0.88;;;3.40;99.90;;;;;;20980039;28;20401;-64
2023/02/21 04:53:58;;;;;;;2.88;1.02;;;3.20;99.90;;;;;;20990693;28;20036;-58
2023/02/21 05:03:59;;;;;;;1.45;0.63;;;2.90;99.90;;;;;;20995465;28;20449;-57
2023/02/21 05:14:01;;;;;;;3.13;1.17;;;2.80;99.90;;;;;;20992501;28;20497;-64
2023/02/21 05:24:07;;;;;;;12.02;4.70;;;2.90;99.90;;;;;;20986662;28;20052;-59
2023/02/21 05:34:09;;;;;;;2.78;1.38;;;2.70;99.90;;;;;;20981978;28;20480;-58
2023/02/21 05:44:10;;;;;;;7.57;3.38;;;2.40;99.90;;;;;;20988232;28;20044;-57
2023/02/21 05:54:18;;;;;;;3.15;1.40;;;2.40;99.90;;;;;;20990834;28;20043;-58
2023/02/21 06:04:19;;;;;;;3.30;1.40;;;2.30;99.90;;;;;;20986328;28;20034;-55
2023/02/21 06:14:21;;;;;;;2.50;1.10;;;2.20;99.90;;;;;;20950628;28;20438;-66
2023/02/21 06:24:22;;;;;;;2.38;1.05;;;2.20;99.90;;;;;;20979121;28;20110;-60
2023/02/21 06:34:24;;;;;;;2.53;0.57;;;2.20;99.90;;;;;;20948826;28;20041;-58
2023/02/21 06:44:26;;;;;;;1.13;0.80;;;2.40;99.90;;;;;;20972232;28;20037;-60
2023/02/21 06:54:28;;;;;;;3.53;1.30;;;2.70;99.90;;;;;;20970962;28;20036;-60
2023/02/21 07:04:30;;;;;;;13.77;6.57;;;2.80;99.90;;;;;;20986314;28;20032;-60
2023/02/21 07:14:32;;;;;;;8.63;3.30;;;3.00;99.90;;;;;;20982224;28;20043;-60
2023/02/21 07:24:33;;;;;;;13.38;6.38;;;3.00;99.90;;;;;;20977943;28;20028;-57
2023/02/21 07:34:35;;;;;;;25.08;12.82;;;3.00;99.90;;;;;;20949433;28;20087;-57
2023/02/21 07:44:37;;;;;;;30.60;13.68;;;3.40;99.90;;;;;;20963538;28;20021;-56
2023/02/21 07:54:39;;;;;;;19.23;8.48;;;3.90;99.90;;;;;;20972954;28;20086;-57
2023/02/21 08:04:41;;;;;;;23.73;11.20;;;4.80;99.90;;;;;;20985327;28;20103;-56
2023/02/21 08:14:42;;;;;;;29.40;14.95;;;6.20;99.90;;;;;;20983728;28;20041;-63
2023/02/21 08:24:45;;;;;;;34.05;16.25;;;7.40;99.90;;;;;;20963934;28;20025;-57
2023/02/21 08:34:49;;;;;;;34.70;18.20;;;8.30;99.90;;;;;;20978577;28;20066;-64
2023/02/21 08:44:51;;;;;;;42.70;22.10;;;9.20;99.90;;;;;;20982350;28;20485;-58
2023/02/21 08:54:53;;;;;;;46.63;24.58;;;9.70;99.90;;;;;;20988855;28;20082;-65
2023/02/21 09:04:54;;;;;;;44.67;25.52;;;9.90;99.90;;;;;;20983138;28;20103;-63
2023/02/21 09:14:56;;;;;;;49.28;26.80;;;10.00;99.90;;;;;;20988748;28;20066;-58
2023/02/21 09:24:59;;;;;;;48.70;26.73;;;10.40;99.90;;;;;;20987592;28;20044;-63
2023/02/21 09:35:01;;;;;;;48.78;27.63;;;10.90;99.90;;;;;;20994375;28;20093;-58
2023/02/21 09:45:03;;;;;;;50.70;29.05;;;11.10;99.90;;;;;;20976010;28;20032;-57
2023/02/21 09:55:18;;;;;;;51.22;29.13;;;11.40;99.90;;;;;;20986694;28;20044;-57
2023/02/21 10:05:37;;;;;;;53.22;29.85;;;11.50;99.90;;;;;;20990203;28;20094;-58
2023/02/21 10:16:18;;;;;;;51.65;29.42;;;11.20;99.90;;;;;;20988676;28;20094;-57
2023/02/21 10:26:24;;;;;;;;;;;11.20;99.90;;;;;;20962584;28;20120;-63
2023/02/21 10:36:28;;;;;;;55.20;30.67;;;11.50;99.90;;;;;;20984891;28;19911;-58
2023/02/21 10:46:36;;;;;;;53.05;30.75;;;11.80;99.90;;;;;;20988493;28;20040;-58
2023/02/21 10:56:38;;;;;;;55.13;31.48;;;12.10;99.90;;;;;;20985926;28;20037;-63
2023/02/21 11:06:45;;;;;;;56.03;30.95;;;12.30;99.90;;;;;;20964449;28;20441;-63
2023/02/21 11:17:19;;;;;;;55.53;30.13;;;12.00;99.90;;;;;;20986565;28;20044;-63
2023/02/21 11:27:21;;;;;;;52.10;29.60;;;12.10;99.90;;;;;;20975297;28;20032;-62
2023/02/21 11:37:23;;;;;;;51.13;29.52;;;12.40;99.90;;;;;;20971925;28;20033;-63
2023/02/21 11:47:33;;;;;;;58.78;32.30;;;12.70;99.90;;;;;;20982524;28;20040;-64
2023/02/21 11:57:44;;;;;;;;;;;12.80;99.90;;;;;;20976782;28;20033;-63
2023/02/21 12:08:12;;;;;;;57.38;33.78;;;12.30;99.90;;;;;;20980551;28;19981;-63
2023/02/21 12:18:31;;;;;;;78.40;40.42;;;12.00;99.90;;;;;;20984433;28;20029;-64
2023/02/21 12:29:03;;;;;;;74.18;40.75;;;11.70;99.90;;;;;;20974012;28;20032;-64
2023/02/21 12:39:42;;;;;;;81.88;45.03;;;11.30;99.90;;;;;;20990827;28;20044;-63
2023/02/21 12:49:52;;;;;;;79.60;43.58;;;11.40;99.90;;;;;;20998259;28;20398;-64
2023/02/21 13:00:26;;;;;;;;;;;11.50;99.90;;;;;;20993694;28;20033;-56
2023/02/21 13:10:48;;;;;;;87.93;48.15;;;11.00;99.90;;;;;;20966823;28;20289;-58
2023/02/21 13:21:26;;;;;;;80.40;44.55;;;10.30;99.90;;;;;;20984384;28;20334;-58
2023/02/21 13:31:38;;;;;;;79.85;45.42;;;9.80;99.90;;;;;;20987129;28;20436;-58
2023/02/21 13:41:55;;;;;;;84.03;46.38;;;9.50;99.90;;;;;;20980307;28;20367;-57
2023/02/21 13:52:22;;;;;;;87.50;46.58;;;9.50;99.90;;;;;;20984630;28;20400;-64
2023/02/21 14:02:31;;;;;;;85.55;47.25;;;9.50;99.90;;;;;;20990966;28;20074;-58
2023/02/21 14:12:33;;;;;;;86.60;48.30;;;9.20;99.90;;;;;;20985235;28;20547;-64
2023/02/21 14:22:35;;;;;;;84.35;46.28;;;9.30;99.90;;;;;;20982619;28;20071;-64
2023/02/21 14:32:46;;;;;;;86.95;46.33;;;9.10;99.90;;;;;;20973074;28;20110;-58
2023/02/21 14:43:09;;;;;;;81.90;46.13;;;8.50;99.90;;;;;;20980376;28;20540;-58
2023/02/21 14:53:44;;;;;;;88.40;46.00;;;8.00;99.90;;;;;;20981410;28;20089;-65
2023/02/21 15:04:25;;;;;;;92.70;49.05;;;7.50;99.90;;;;;;20978532;28;20032;-64
2023/02/21 15:14:28;;;;;;;88.95;50.15;;;7.00;99.90;;;;;;20983121;28;20040;-58
2023/02/21 15:24:30;;;;;;;125.72;56.85;;;6.60;99.90;;;;;;20976844;28;20397;-57
2023/02/21 15:34:41;;;;;;;154.32;59.00;;;6.20;99.90;;;;;;20985059;28;20559;-65
2023/02/21 15:44:59;;;;;;;130.38;62.75;;;5.90;99.90;;;;;;20970730;28;20087;-64
2023/02/21 15:55:19;;;;;;;120.18;57.05;;;5.70;99.90;;;;;;20987403;28;20090;-64
2023/02/21 16:05:31;;;;;;;173.75;57.03;;;5.60;99.90;;;;;;20979722;28;20070;-58
2023/02/21 16:15:35;;;;;;;508.33;77.93;;;5.40;99.90;;;;;;20975306;28;20458;-57
2023/02/21 16:25:59;;;;;;;324.88;77.47;;;5.10;99.90;;;;;;20978234;28;20409;-64
2023/02/21 16:36:06;;;;;;;292.88;81.65;;;4.60;99.90;;;;;;20965672;28;20041;-64
2023/02/21 16:46:08;;;;;;;480.73;87.50;;;4.60;99.90;;;;;;20984105;28;20102;-59
2023/02/21 16:56:11;;;;;;;269.38;79.53;;;4.50;99.90;;;;;;20980325;28;20024;-65
2023/02/21 17:06:20;;;;;;;225.77;82.45;;;4.40;99.90;;;;;;20990326;28;20033;-64
2023/02/21 17:16:22;;;;;;;210.73;78.80;;;4.50;99.90;;;;;;20996243;28;20049;-65
2023/02/21 17:26:24;;;;;;;216.43;74.38;;;4.60;99.90;;;;;;20975786;28;20090;-64
2023/02/21 17:36:27;;;;;;;149.93;63.92;;;4.40;99.90;;;;;;20980593;28;20041;-64
2023/02/21 17:46:30;;;;;;;150.13;63.08;;;4.30;99.90;;;;;;20964753;28;20036;-58
2023/02/21 17:56:32;;;;;;;173.90;67.65;;;4.10;99.90;;;;;;20973503;28;20025;-57
2023/02/21 18:06:34;;;;;;;168.95;69.30;;;3.90;99.90;;;;;;20992272;28;20389;-64
2023/02/21 18:16:36;;;;;;;166.68;67.03;;;3.80;99.90;;;;;;20990740;28;20493;-57
2023/02/21 18:26:38;;;;;;;164.82;66.60;;;3.70;99.90;;;;;;20975147;28;20393;-57
2023/02/21 18:36:49;;;;;;;164.18;63.88;;;3.60;99.90;;;;;;20971547;28;20074;-57
2023/02/21 18:46:55;;;;;;;138.30;58.03;;;3.60;99.90;;;;;;20989011;28;20433;-58
2023/02/21 18:56:57;;;;;;;134.65;57.10;;;3.50;99.90;;;;;;20977696;28;20090;-64
2023/02/21 19:07:05;;;;;;;127.15;54.55;;;3.60;99.90;;;;;;20980058;28;20029;-58
2023/02/21 19:17:08;;;;;;;131.70;54.75;;;3.60;99.90;;;;;;20985135;28;20037;-57
2023/02/21 19:27:10;;;;;;;156.75;62.55;;;3.60;99.90;;;;;;20976738;28;20035;-58
2023/02/21 19:37:11;;;;;;;138.30;58.90;;;3.60;99.90;;;;;;20971508;28;20025;-58
2023/02/21 19:47:13;;;;;;;137.02;56.70;;;3.60;99.90;;;;;;20981563;28;20037;-58
2023/02/21 19:57:15;;;;;;;148.43;61.85;;;3.60;99.90;;;;;;20979380;28;20029;-64
2023/02/21 20:07:17;;;;;;;148.75;58.50;;;3.60;99.90;;;;;;20982315;28;20029;-57
2023/02/21 20:17:19;;;;;;;147.70;59.67;;;3.80;99.90;;;;;;20983571;28;20033;-58
2023/02/21 20:27:21;;;;;;;140.57;57.42;;;3.80;99.90;;;;;;20960938;28;20028;-57
2023/02/21 20:37:23;;;;;;;133.73;55.47;;;3.80;99.90;;;;;;20978373;28;20029;-58
2023/02/21 20:47:27;;;;;;;107.85;47.10;;;3.80;99.90;;;;;;20996691;28;20086;-58
2023/02/21 20:57:29;;;;;;;109.53;48.85;;;3.80;99.90;;;;;;20995392;28;20059;-64
2023/02/21 21:07:31;;;;;;;106.80;46.00;;;3.80;99.90;;;;;;20974580;28;20041;-58
2023/02/21 21:17:34;;;;;;;97.20;44.20;;;3.80;99.90;;;;;;20996337;28;20385;-58
2023/02/21 21:27:36;;;;;;;85.18;40.17;;;3.80;99.90;;;;;;20982524;28;20048;-64
2023/02/21 21:37:38;;;;;;;89.10;39.40;;;3.90;99.90;;;;;;20980569;28;20465;-64
2023/02/21 21:47:40;;;;;;;90.22;41.30;;;3.90;99.90;;;;;;20993858;28;20078;-64
2023/02/21 21:57:42;;;;;;;79.97;38.22;;;3.90;99.90;;;;;;20984652;28;20039;-58
2023/02/21 22:07:44;;;;;;;86.90;40.92;;;3.90;99.90;;;;;;20986045;28;20049;-64
2023/02/21 22:17:47;;;;;;;91.90;41.65;;;4.00;99.90;;;;;;20991335;28;20028;-58
2023/02/21 22:27:48;;;;;;;94.45;41.03;;;3.90;99.90;;;;;;20985392;28;20029;-65
2023/02/21 22:37:52;;;;;;;90.25;38.83;;;3.80;99.90;;;;;;20975150;28;20078;-64
2023/02/21 22:47:56;;;;;;;84.32;37.58;;;3.80;99.90;;;;;;20989203;28;20089;-58
2023/02/21 22:57:58;;;;;;;94.03;41.38;;;3.80;99.90;;;;;;20984318;28;20036;-64
2023/02/21 23:08:00;;;;;;;90.63;41.00;;;3.90;99.90;;;;;;20986844;28;20109;-64
2023/02/21 23:18:02;;;;;;;81.60;37.38;;;3.70;99.90;;;;;;20987201;28;20040;-58
2023/02/21 23:28:14;;;;;;;76.68;36.85;;;3.80;99.90;;;;;;20959528;28;20032;-64
2023/02/21 23:38:18;;;;;;;84.22;38.28;;;3.90;99.90;;;;;;20982376;28;20462;-64
2023/02/21 23:48:21;;;;;;;79.07;35.90;;;3.80;99.90;;;;;;20985793;28;20033;-67
2023/02/21 23:58:25;;;;;;;82.00;38.60;;;3.80;99.90;;;;;;20984686;28;20082;-66
